Time;durP1;ratioP1;P1;durP2;ratioP2;P2;SDS_P1;SDS_P2;PMS_P1;PMS_P2;Temp;Humidity;BMP_temperature;BMP_pressure;BME280_temperature;BME280_humidity;BME280_pressure;Samples;Min_cycle;Max_cycle;Signal;HPM_P1;HPM_P2
2022/07/09 15:40:51;;;;;;;3.72;0.50;;;25.20;66.40;;;;;;5067174;28;20614;-58
2022/07/09 15:43:17;;;;;;;4.40;0.40;;;24.50;67.70;;;;;;5067800;28;20424;-63
2022/07/09 15:45:44;;;;;;;0.32;0.22;;;24.40;66.80;;;;;;5069269;28;20243;-64
2022/07/09 15:48:10;;;;;;;0.90;0.68;;;24.50;65.60;;;;;;5065592;28;20181;-63
2022/07/09 15:50:35;;;;;;;1.67;1.20;;;24.70;65.80;;;;;;5068876;28;20231;-57
2022/07/09 15:53:01;;;;;;;0.00;0.00;;;24.60;65.60;;;;;;5071086;28;20234;-62
2022/07/09 15:55:27;;;;;;;1.13;0.55;;;24.40;66.30;;;;;;5076970;28;20257;-60
2022/07/09 15:57:53;;;;;;;1.35;0.95;;;24.10;67.10;;;;;;5076090;28;20181;-58
2022/07/09 16:00:24;;;;;;;0.00;0.00;;;23.80;67.70;;;;;;5077066;28;20695;-59
2022/07/09 16:02:52;;;;;;;0.20;0.20;;;23.60;69.10;;;;;;5077403;28;20224;-64
2022/07/09 16:05:19;;;;;;;0.20;0.20;;;23.80;69.30;;;;;;5076540;28;20219;-63
2022/07/09 16:07:44;;;;;;;1.15;0.52;;;24.40;67.00;;;;;;5076660;28;20240;-65
2022/07/09 16:10:10;;;;;;;4.15;0.57;;;25.70;65.00;;;;;;5076485;28;20201;-63
2022/07/09 16:12:52;;;;;;;0.10;0.10;;;27.70;60.60;;;;;;5077710;28;20181;-63
2022/07/09 16:15:25;;;;;;;0.22;0.22;;;29.90;57.30;;;;;;5077768;28;20207;-61
2022/07/09 16:17:53;;;;;;;3.47;0.82;;;31.80;53.30;;;;;;5073245;28;20547;-65
2022/07/09 16:20:19;;;;;;;0.68;0.52;;;32.90;50.70;;;;;;5075778;28;20197;-63
2022/07/09 16:22:46;;;;;;;0.30;0.30;;;32.70;49.80;;;;;;5072259;28;20621;-62
2022/07/09 16:25:13;;;;;;;0.10;0.10;;;34.10;49.00;;;;;;5076117;28;20629;-63
2022/07/09 16:27:40;;;;;;;1.10;0.68;;;33.20;49.50;;;;;;5075773;28;20198;-63
2022/07/09 16:30:07;;;;;;;0.82;0.35;;;33.50;48.20;;;;;;5075829;28;20280;-63
2022/07/09 16:32:33;;;;;;;2.45;1.35;;;31.30;50.50;;;;;;5076773;28;20285;-62
2022/07/09 16:34:59;;;;;;;0.20;0.20;;;29.50;54.20;;;;;;5076255;28;20658;-59
2022/07/09 16:37:26;;;;;;;1.70;1.52;;;29.50;55.30;;;;;;5075922;28;20653;-60
2022/07/09 16:39:53;;;;;;;0.65;0.65;;;29.60;55.00;;;;;;5075979;28;20773;-64
2022/07/09 16:42:19;;;;;;;0.10;0.10;;;30.10;55.40;;;;;;5074703;28;20196;-64
2022/07/09 16:44:45;;;;;;;0.52;0.52;;;31.40;52.80;;;;;;5076800;28;20189;-57
2022/07/09 16:47:10;;;;;;;0.00;0.00;;;30.40;53.50;;;;;;5075307;28;20616;-59
2022/07/09 16:49:36;;;;;;;0.00;0.00;;;28.60;56.50;;;;;;5076517;28;20193;-59
2022/07/09 16:52:02;;;;;;;0.00;0.00;;;27.20;59.90;;;;;;5063713;28;20195;-63
2022/07/09 16:54:28;;;;;;;0.45;0.32;;;26.10;62.00;;;;;;5062729;28;20272;-63
2022/07/09 16:56:53;;;;;;;2.17;1.30;;;25.40;63.60;;;;;;5062624;28;20201;-62
2022/07/09 16:59:19;;;;;;;0.52;0.52;;;24.70;65.40;;;;;;5061588;28;20711;-60
2022/07/09 17:01:45;;;;;;;1.05;0.98;;;24.00;67.60;;;;;;5062577;28;20684;-62
2022/07/09 17:04:12;;;;;;;1.77;1.50;;;23.50;69.50;;;;;;5062140;28;20309;-63
2022/07/09 17:06:37;;;;;;;5.32;1.30;;;23.00;70.50;;;;;;5062581;28;20265;-63
2022/07/09 17:09:03;;;;;;;1.48;0.47;;;22.70;72.20;;;;;;5062423;28;21071;-63
2022/07/09 17:11:29;;;;;;;0.82;0.82;;;22.40;73.00;;;;;;5061361;28;20642;-64
2022/07/09 17:13:55;;;;;;;0.95;0.85;;;22.20;73.80;;;;;;5060421;28;20186;-62
2022/07/09 17:16:20;;;;;;;0.10;0.10;;;21.90;74.70;;;;;;5062231;28;20546;-63
2022/07/09 17:18:46;;;;;;;1.33;0.80;;;21.80;75.60;;;;;;5060137;28;20209;-58
2022/07/09 17:21:12;;;;;;;0.00;0.00;;;21.70;76.10;;;;;;5062360;28;20213;-60
2022/07/09 17:23:38;;;;;;;0.45;0.45;;;21.70;76.60;;;;;;5062584;28;20190;-61
2022/07/09 17:26:04;;;;;;;0.00;0.00;;;21.60;76.80;;;;;;5062253;28;20224;-59
2022/07/09 17:28:30;;;;;;;1.25;0.90;;;21.50;77.50;;;;;;5061033;28;20280;-55
2022/07/09 17:30:56;;;;;;;2.08;0.57;;;21.30;78.60;;;;;;5060580;28;20217;-65
2022/07/09 17:33:22;;;;;;;0.10;0.10;;;21.20;79.70;;;;;;5061961;28;20189;-63
2022/07/09 17:35:50;;;;;;;0.13;0.13;;;21.00;80.70;;;;;;5062232;28;20189;-61
2022/07/09 17:38:15;;;;;;;0.93;0.93;;;20.90;81.00;;;;;;5061097;28;20737;-65
2022/07/09 17:40:41;;;;;;;0.05;0.05;;;20.80;80.60;;;;;;5061340;28;20368;-53
2022/07/09 17:43:07;;;;;;;0.00;0.00;;;20.70;80.70;;;;;;5061346;28;20664;-55
2022/07/09 17:45:33;;;;;;;3.33;0.82;;;20.70;80.90;;;;;;5062424;28;20212;-50
2022/07/09 17:47:59;;;;;;;0.15;0.15;;;20.60;80.70;;;;;;5062137;28;20186;-51
2022/07/09 17:50:25;;;;;;;0.00;0.00;;;20.50;81.00;;;;;;5061523;28;20190;-63
2022/07/09 17:52:51;;;;;;;0.00;0.00;;;20.50;80.70;;;;;;5061812;28;20553;-54
2022/07/09 17:55:19;;;;;;;0.35;0.30;;;20.50;81.10;;;;;;5062154;28;20491;-59
2022/07/09 17:57:48;;;;;;;2.15;1.25;;;20.40;81.20;;;;;;5059383;28;20197;-62
2022/07/09 18:00:15;;;;;;;3.05;1.58;;;20.40;81.70;;;;;;5060251;28;20220;-63
2022/07/09 18:02:41;;;;;;;0.10;0.10;;;20.40;81.20;;;;;;5060799;28;20272;-64
2022/07/09 18:05:07;;;;;;;4.22;1.95;;;20.30;82.00;;;;;;5061850;28;20302;-62
2022/07/09 18:07:33;;;;;;;19.00;1.98;;;20.20;82.50;;;;;;5060930;28;20543;-61
2022/07/09 18:09:59;;;;;;;1.48;0.95;;;20.20;83.30;;;;;;5061415;28;20658;-63
2022/07/09 18:12:25;;;;;;;0.43;0.43;;;20.10;83.90;;;;;;5059967;28;20201;-64
2022/07/09 18:14:51;;;;;;;0.00;0.00;;;20.00;84.90;;;;;;5061302;28;20198;-63
2022/07/09 18:17:17;;;;;;;0.20;0.20;;;20.00;85.70;;;;;;5057381;28;20194;-63
2022/07/09 18:19:42;;;;;;;2.25;1.75;;;19.90;86.90;;;;;;5060635;28;20252;-65
2022/07/09 18:22:08;;;;;;;0.00;0.00;;;19.80;87.70;;;;;;5060624;28;20227;-64
2022/07/09 18:24:34;;;;;;;1.17;1.00;;;19.80;88.70;;;;;;5060405;28;20186;-67
2022/07/09 18:26:59;;;;;;;0.98;0.73;;;19.70;89.60;;;;;;5059057;28;20269;-62
2022/07/09 18:29:25;;;;;;;0.00;0.00;;;19.70;90.30;;;;;;5060470;28;20662;-62
2022/07/09 18:31:51;;;;;;;0.10;0.10;;;19.60;90.60;;;;;;5060228;28;20208;-62
2022/07/09 18:34:16;;;;;;;2.05;1.30;;;19.60;91.20;;;;;;5060121;28;20669;-67
2022/07/09 18:36:42;;;;;;;2.08;1.13;;;19.60;91.90;;;;;;5060347;28;20263;-61
2022/07/09 18:39:08;;;;;;;0.00;0.00;;;19.50;92.60;;;;;;5060845;28;20250;-64
2022/07/09 18:41:34;;;;;;;0.00;0.00;;;19.50;93.30;;;;;;5059348;28;20208;-67
2022/07/09 18:44:00;;;;;;;0.70;0.70;;;19.50;93.90;;;;;;5060676;28;20189;-56
2022/07/09 18:46:26;;;;;;;2.20;1.05;;;19.50;94.40;;;;;;5060990;28;20237;-59
2022/07/09 18:48:52;;;;;;;1.13;0.70;;;19.50;94.80;;;;;;5060783;28;20418;-62
2022/07/09 18:51:18;;;;;;;0.90;0.47;;;19.40;95.40;;;;;;5060001;28;20201;-66
2022/07/09 18:53:43;;;;;;;0.00;0.00;;;19.40;95.40;;;;;;5059302;28;20197;-64
2022/07/09 18:56:09;;;;;;;0.20;0.20;;;19.40;95.60;;;;;;5058855;28;20571;-66
2022/07/09 18:58:35;;;;;;;1.17;0.65;;;19.40;96.00;;;;;;5060552;28;20190;-62
2022/07/09 19:01:01;;;;;;;0.00;0.00;;;19.40;96.30;;;;;;5060946;28;20201;-62
2022/07/09 19:03:27;;;;;;;1.08;0.98;;;19.40;96.50;;;;;;5060734;28;20190;-61
2022/07/09 19:05:53;;;;;;;0.20;0.20;;;19.40;96.80;;;;;;5060307;28;20197;-60
2022/07/09 19:08:18;;;;;;;0.00;0.00;;;19.40;97.10;;;;;;5059930;28;20532;-63
2022/07/09 19:10:44;;;;;;;0.00;0.00;;;19.30;97.30;;;;;;5058442;28;20190;-60
2022/07/09 19:13:10;;;;;;;2.55;0.75;;;19.30;97.70;;;;;;5060275;28;20276;-61
2022/07/09 19:15:36;;;;;;;0.05;0.05;;;19.30;97.90;;;;;;5059253;28;20190;-62
2022/07/09 19:18:01;;;;;;;1.45;0.65;;;19.20;98.10;;;;;;5057646;28;20201;-62
2022/07/09 19:20:27;;;;;;;0.00;0.00;;;19.20;98.40;;;;;;5059999;28;20214;-60
2022/07/09 19:22:53;;;;;;;2.10;1.25;;;19.20;98.70;;;;;;5059833;28;20510;-61
2022/07/09 19:25:19;;;;;;;0.20;0.20;;;19.20;98.80;;;;;;5060214;28;20725;-61
2022/07/09 19:27:44;;;;;;;0.28;0.17;;;19.10;99.00;;;;;;5060074;28;20186;-60
2022/07/09 19:30:10;;;;;;;0.38;0.32;;;19.10;99.20;;;;;;5060347;28;20217;-60
2022/07/09 19:35:20;;;;;;;0.20;0.20;;;19.00;99.80;;;;;;5060031;28;20192;-58
2022/07/09 19:37:46;;;;;;;0.20;0.20;;;18.90;99.90;;;;;;5058569;28;20273;-60
2022/07/09 19:40:12;;;;;;;0.90;0.35;;;18.90;99.90;;;;;;5058587;28;20229;-59
2022/07/09 19:42:38;;;;;;;0.85;0.85;;;18.90;99.90;;;;;;5059175;28;20193;-60
2022/07/09 19:45:04;;;;;;;0.00;0.00;;;18.80;99.90;;;;;;5060084;28;20270;-60
2022/07/09 19:47:30;;;;;;;0.03;0.03;;;18.80;99.90;;;;;;5059696;28;20194;-58
2022/07/09 19:49:56;;;;;;;0.20;0.20;;;18.70;99.90;;;;;;5058776;28;20194;-57
2022/07/09 19:52:24;;;;;;;1.27;0.95;;;18.70;99.90;;;;;;5059316;28;20247;-57
2022/07/09 19:54:50;;;;;;;0.00;0.00;;;18.70;99.90;;;;;;5058336;28;20193;-62
2022/07/09 19:57:16;;;;;;;0.17;0.17;;;18.60;99.90;;;;;;5059818;28;20635;-63
2022/07/09 19:59:41;;;;;;;1.27;1.08;;;18.60;99.90;;;;;;5060407;28;20670;-57
2022/07/09 20:02:07;;;;;;;0.90;0.77;;;18.50;99.90;;;;;;5060764;28;20186;-59
2022/07/09 20:04:33;;;;;;;0.00;0.00;;;18.50;99.90;;;;;;5060229;28;20186;-61
2022/07/09 20:06:58;;;;;;;1.40;0.43;;;18.40;99.90;;;;;;5060054;28;20190;-54
2022/07/09 20:09:24;;;;;;;0.50;0.50;;;18.40;99.90;;;;;;5059967;28;20257;-59
2022/07/09 20:11:50;;;;;;;0.00;0.00;;;18.40;99.90;;;;;;5058751;28;21034;-59
2022/07/09 20:14:15;;;;;;;0.07;0.07;;;18.40;99.90;;;;;;5053860;28;20194;-59
2022/07/09 20:16:42;;;;;;;0.00;0.00;;;18.40;99.90;;;;;;5049508;28;20189;-59
2022/07/09 20:19:07;;;;;;;0.40;0.40;;;18.40;99.90;;;;;;5049478;28;20210;-62
2022/07/09 20:21:33;;;;;;;0.10;0.10;;;18.50;99.90;;;;;;5049376;28;20193;-60
2022/07/09 20:23:59;;;;;;;0.38;0.38;;;18.50;99.90;;;;;;5048724;28;20201;-57
2022/07/09 20:26:24;;;;;;;0.00;0.00;;;18.50;99.90;;;;;;5050475;28;20344;-60
2022/07/09 20:28:50;;;;;;;2.70;0.97;;;18.50;99.90;;;;;;5052505;28;20239;-59
2022/07/09 20:31:16;;;;;;;0.00;0.00;;;18.50;99.90;;;;;;5051590;28;20190;-56
2022/07/09 20:33:41;;;;;;;2.23;1.30;;;18.50;99.90;;;;;;5051672;28;20211;-58
2022/07/09 20:36:07;;;;;;;2.43;0.77;;;18.50;99.90;;;;;;5052418;28;20182;-57
2022/07/09 20:38:33;;;;;;;0.33;0.20;;;18.50;99.90;;;;;;5052842;28;20186;-55
2022/07/09 20:40:59;;;;;;;0.00;0.00;;;18.50;99.90;;;;;;5052625;28;20182;-55
2022/07/09 20:43:25;;;;;;;0.00;0.00;;;18.50;99.90;;;;;;5052962;28;20175;-56
2022/07/09 20:45:50;;;;;;;0.87;0.80;;;18.40;99.90;;;;;;5052656;28;20265;-58
2022/07/09 20:48:16;;;;;;;1.33;0.93;;;18.40;99.90;;;;;;5053164;28;20182;-58
2022/07/09 20:50:42;;;;;;;1.53;1.40;;;18.40;99.90;;;;;;5052765;28;20236;-56
2022/07/09 20:53:08;;;;;;;0.80;0.67;;;18.30;99.90;;;;;;5054359;28;20531;-59
2022/07/09 20:55:34;;;;;;;0.20;0.17;;;18.30;99.90;;;;;;5054702;28;20189;-55
2022/07/09 20:58:01;;;;;;;0.37;0.33;;;18.20;99.90;;;;;;5054031;28;20175;-56
2022/07/09 21:00:27;;;;;;;1.53;1.37;;;18.20;99.90;;;;;;5054365;28;20214;-55
2022/07/09 21:02:53;;;;;;;1.40;0.70;;;18.20;99.90;;;;;;5054388;28;20185;-58
2022/07/09 21:05:20;;;;;;;0.40;0.30;;;18.10;99.90;;;;;;5054364;28;20197;-56
2022/07/09 21:07:45;;;;;;;0.00;0.00;;;18.10;99.90;;;;;;5054266;28;20179;-56
2022/07/09 21:10:11;;;;;;;0.53;0.50;;;18.10;99.90;;;;;;5054260;28;20193;-56
2022/07/09 21:12:37;;;;;;;0.00;0.00;;;18.00;99.90;;;;;;5054246;28;20178;-55
2022/07/09 21:15:04;;;;;;;3.93;2.13;;;18.00;99.90;;;;;;5053831;28;20605;-56
2022/07/09 21:20:15;;;;;;;0.27;0.20;;;17.90;99.90;;;;;;5053602;28;20550;-55
2022/07/09 21:22:40;;;;;;;0.00;0.00;;;17.90;99.90;;;;;;5054022;28;20190;-56
2022/07/09 21:25:07;;;;;;;0.23;0.23;;;17.90;99.90;;;;;;5053520;28;20187;-55
2022/07/09 21:27:32;;;;;;;1.23;0.67;;;17.80;99.90;;;;;;5052305;28;20641;-55
2022/07/09 21:29:58;;;;;;;0.73;0.63;;;17.80;99.90;;;;;;5053762;28;20209;-55
2022/07/09 21:32:24;;;;;;;1.00;0.60;;;17.80;99.90;;;;;;5053713;28;20191;-55
2022/07/09 21:34:52;;;;;;;0.33;0.33;;;17.80;99.90;;;;;;5053300;28;20184;-66
2022/07/09 21:37:18;;;;;;;0.13;0.13;;;17.70;99.90;;;;;;5053739;28;20183;-55
2022/07/09 21:39:44;;;;;;;0.00;0.00;;;17.70;99.90;;;;;;5053238;28;20249;-56
2022/07/09 21:42:09;;;;;;;1.03;0.57;;;17.70;99.90;;;;;;5052972;28;21045;-55
2022/07/09 21:44:35;;;;;;;1.17;0.83;;;17.60;99.90;;;;;;5053691;28;20175;-55
2022/07/09 21:47:01;;;;;;;0.40;0.23;;;17.60;99.90;;;;;;5053300;28;20190;-54
2022/07/09 21:49:27;;;;;;;0.20;0.20;;;17.60;99.90;;;;;;5053607;28;20743;-53
2022/07/09 21:51:52;;;;;;;0.33;0.23;;;17.50;99.90;;;;;;5053270;28;20190;-56
2022/07/09 21:54:19;;;;;;;0.10;0.10;;;17.50;99.90;;;;;;5053652;28;20182;-53
2022/07/09 21:56:44;;;;;;;0.07;0.07;;;17.50;99.90;;;;;;5053502;28;20208;-56
2022/07/09 21:59:10;;;;;;;0.00;0.00;;;17.40;99.90;;;;;;5052904;28;20206;-56
2022/07/09 22:01:37;;;;;;;1.70;1.17;;;17.30;99.90;;;;;;5053297;28;20194;-53
2022/07/09 22:04:03;;;;;;;1.30;0.30;;;17.30;99.90;;;;;;5052876;28;20179;-55
2022/07/09 22:06:28;;;;;;;0.00;0.00;;;17.20;99.90;;;;;;5053069;28;20618;-55
2022/07/09 22:08:54;;;;;;;0.00;0.00;;;17.20;99.90;;;;;;5053046;28;20182;-53
2022/07/09 22:11:20;;;;;;;0.40;0.40;;;17.20;99.90;;;;;;5053044;28;20634;-55
2022/07/09 22:13:46;;;;;;;3.47;0.83;;;17.10;99.90;;;;;;5051609;28;20174;-57
2022/07/09 22:16:12;;;;;;;0.10;0.10;;;17.10;99.90;;;;;;5052583;28;20299;-55
2022/07/09 22:18:38;;;;;;;0.00;0.00;;;17.10;99.90;;;;;;5052842;28;20193;-54
2022/07/09 22:21:04;;;;;;;3.70;1.07;;;17.10;99.90;;;;;;5052618;28;20591;-57
2022/07/09 22:23:30;;;;;;;1.40;0.67;;;17.10;99.90;;;;;;5052657;28;20896;-54
2022/07/09 22:25:56;;;;;;;3.90;2.10;;;17.10;99.90;;;;;;5052600;28;20185;-54
2022/07/09 22:28:21;;;;;;;2.23;0.77;;;17.10;99.90;;;;;;5051072;28;20190;-56
2022/07/09 22:30:48;;;;;;;0.57;0.50;;;17.10;99.90;;;;;;5051262;28;20186;-57
2022/07/09 22:33:13;;;;;;;0.73;0.43;;;17.10;99.90;;;;;;5051053;28;20186;-55
2022/07/09 22:35:39;;;;;;;0.00;0.00;;;17.10;99.90;;;;;;5052357;28;20190;-54
2022/07/09 22:38:05;;;;;;;1.40;0.60;;;17.10;99.90;;;;;;5052213;28;20182;-50
2022/07/09 22:40:31;;;;;;;0.60;0.60;;;17.10;99.90;;;;;;5051968;28;20234;-56
2022/07/09 22:42:56;;;;;;;5.63;1.30;;;17.10;99.90;;;;;;5051972;28;20178;-57
2022/07/09 22:45:23;;;;;;;0.00;0.00;;;17.10;99.90;;;;;;5052022;28;20182;-57
2022/07/09 22:47:49;;;;;;;7.00;2.07;;;17.10;99.90;;;;;;5052327;28;20194;-55
2022/07/09 22:50:15;;;;;;;0.97;0.53;;;17.10;99.90;;;;;;5051529;28;20197;-51
2022/07/09 22:52:41;;;;;;;3.57;0.20;;;17.00;99.90;;;;;;5051748;28;20181;-55
2022/07/09 22:55:10;;;;;;;1.03;0.80;;;17.00;99.90;;;;;;5051836;28;20635;-54
2022/07/09 22:57:36;;;;;;;2.83;1.00;;;17.00;99.90;;;;;;5050794;28;20190;-52
2022/07/09 23:00:04;;;;;;;0.00;0.00;;;17.00;99.90;;;;;;5051522;28;20206;-57
2022/07/09 23:02:30;;;;;;;0.00;0.00;;;17.00;99.90;;;;;;5051572;28;20187;-54
2022/07/09 23:04:55;;;;;;;1.60;1.50;;;17.00;99.90;;;;;;5051838;28;20183;-64
2022/07/09 23:10:06;;;;;;;1.17;0.77;;;17.00;99.90;;;;;;5051600;28;20192;-55
2022/07/09 23:12:31;;;;;;;0.00;0.00;;;17.00;99.90;;;;;;5051762;28;20232;-54
2022/07/09 23:14:57;;;;;;;9.90;0.87;;;17.00;99.90;;;;;;5047606;28;20202;-59
2022/07/09 23:17:23;;;;;;;0.40;0.20;;;17.00;99.90;;;;;;5050429;28;20193;-55
2022/07/09 23:19:49;;;;;;;2.73;1.17;;;17.00;99.90;;;;;;5050108;28;20263;-57
2022/07/09 23:22:15;;;;;;;3.00;1.60;;;16.90;99.90;;;;;;5050313;28;20178;-53
2022/07/09 23:24:41;;;;;;;0.30;0.20;;;16.90;99.90;;;;;;5050390;28;20178;-56
2022/07/09 23:27:07;;;;;;;0.40;0.40;;;16.90;99.90;;;;;;5051053;28;20185;-53
2022/07/09 23:29:33;;;;;;;0.10;0.10;;;16.80;99.90;;;;;;5051534;28;20221;-58
2022/07/09 23:31:59;;;;;;;0.10;0.10;;;16.80;99.90;;;;;;5051377;28;20270;-54
2022/07/09 23:34:25;;;;;;;0.30;0.30;;;16.80;99.90;;;;;;5051253;28;20273;-54
2022/07/09 23:36:50;;;;;;;1.20;0.73;;;16.80;99.90;;;;;;5051554;28;20595;-53
2022/07/09 23:39:16;;;;;;;0.10;0.10;;;16.70;99.90;;;;;;5049523;28;20273;-54
2022/07/09 23:41:42;;;;;;;0.30;0.30;;;16.70;99.90;;;;;;5051494;28;20197;-54
2022/07/09 23:44:07;;;;;;;0.10;0.10;;;16.60;99.90;;;;;;5050158;28;20351;-57
2022/07/09 23:46:33;;;;;;;0.20;0.20;;;16.60;99.90;;;;;;5051531;28;20649;-54
2022/07/09 23:48:59;;;;;;;3.73;0.80;;;16.60;99.90;;;;;;5051069;28;20209;-54
2022/07/09 23:51:25;;;;;;;0.30;0.30;;;16.60;99.90;;;;;;5051467;28;20190;-55
2022/07/09 23:53:51;;;;;;;0.67;0.43;;;16.50;99.90;;;;;;5051099;28;20708;-54
2022/07/09 23:56:16;;;;;;;0.10;0.10;;;16.50;99.90;;;;;;5049801;28;20677;-54
2022/07/09 23:58:42;;;;;;;0.00;0.00;;;16.50;99.90;;;;;;5051180;28;20179;-54
